createdAt,value
2018-10-12T00:00:24.950Z,15.91
2018-10-12T00:01:24.911Z,15.82
2018-10-12T00:02:24.921Z,15.92
2018-10-12T00:03:24.906Z,15.91
2018-10-12T00:04:24.884Z,15.83
2018-10-12T00:05:24.901Z,15.95
2018-10-12T00:06:24.875Z,15.92
2018-10-12T00:07:24.847Z,15.80
2018-10-12T00:08:24.846Z,15.80
2018-10-12T00:09:24.828Z,15.97
2018-10-12T00:10:24.931Z,15.95
2018-10-12T00:11:24.809Z,15.95
2018-10-12T00:12:24.794Z,15.84
2018-10-12T00:13:24.788Z,15.91
2018-10-12T00:14:24.773Z,15.97
2018-10-12T00:15:24.812Z,15.97
2018-10-12T00:16:24.759Z,15.92
2018-10-12T00:17:24.741Z,15.98
2018-10-12T00:18:24.782Z,15.92
2018-10-12T00:19:24.728Z,15.92
2018-10-12T00:20:24.747Z,15.91
2018-10-12T00:21:24.707Z,15.92
2018-10-12T00:22:24.700Z,15.73
2018-10-12T00:23:24.676Z,15.91
2018-10-12T00:24:24.677Z,15.88
2018-10-12T00:25:24.691Z,15.90
2018-10-12T00:26:24.638Z,15.84
2018-10-12T00:27:24.641Z,15.83
2018-10-12T00:28:24.695Z,15.86
2018-10-12T00:29:24.623Z,15.80
2018-10-12T00:30:24.626Z,15.73
2018-10-12T00:31:24.595Z,15.72
2018-10-12T00:32:24.576Z,15.72
2018-10-12T00:33:24.573Z,15.79
2018-10-12T00:34:24.569Z,15.73
2018-10-12T00:35:24.657Z,15.76
2018-10-12T00:36:24.562Z,15.72
2018-10-12T00:37:24.536Z,15.72
2018-10-12T00:38:24.514Z,15.72
2018-10-12T00:39:24.502Z,15.76
2018-10-12T00:40:24.533Z,15.73
2018-10-12T00:41:24.494Z,15.75
2018-10-12T00:42:24.546Z,15.76
2018-10-12T00:43:24.471Z,15.79
2018-10-12T00:44:24.464Z,15.62
2018-10-12T00:45:24.475Z,15.68
2018-10-12T00:46:24.440Z,15.73
2018-10-12T00:47:24.423Z,15.68
2018-10-12T00:48:24.408Z,15.76
2018-10-12T00:49:24.403Z,15.70
2018-10-12T00:50:24.514Z,15.73
2018-10-12T00:51:24.378Z,15.72
2018-10-12T00:52:24.373Z,15.70
2018-10-12T00:53:24.362Z,15.70
2018-10-12T00:54:24.358Z,15.62
2018-10-12T00:55:24.337Z,15.61
2018-10-12T00:56:24.359Z,15.70
2018-10-12T00:57:24.311Z,15.64
2018-10-12T00:58:24.383Z,15.68
2018-10-12T00:59:24.300Z,15.67
2018-10-12T01:00:24.276Z,15.61
2018-10-12T01:01:24.305Z,15.57
2018-10-12T01:02:24.265Z,15.58
2018-10-12T01:03:24.255Z,15.73
2018-10-12T01:04:24.342Z,15.76
2018-10-12T01:05:24.232Z,15.73
2018-10-12T01:06:24.249Z,15.75
2018-10-12T01:07:24.208Z,15.73
2018-10-12T01:08:24.194Z,15.75
2018-10-12T01:09:24.194Z,15.86
2018-10-12T01:10:24.301Z,15.92
2018-10-12T01:11:24.213Z,15.90
2018-10-12T01:12:24.164Z,15.76
2018-10-12T01:13:24.156Z,15.88
2018-10-12T01:14:24.150Z,15.90
2018-10-12T01:15:24.138Z,15.79
2018-10-12T01:16:24.113Z,15.68
2018-10-12T01:17:24.129Z,15.73
2018-10-12T01:18:24.167Z,15.73
2018-10-12T01:19:24.080Z,15.73
2018-10-12T01:20:24.073Z,15.73
2018-10-12T01:21:24.157Z,15.73
2018-10-12T01:22:24.069Z,15.68
2018-10-12T01:23:24.059Z,15.73
2018-10-12T01:24:24.041Z,15.76
2018-10-12T01:25:24.022Z,15.83
2018-10-12T01:26:24.090Z,15.79
2018-10-12T01:27:24.020Z,15.91
2018-10-12T01:28:23.988Z,15.95
2018-10-12T01:29:24.049Z,15.83
2018-10-12T01:30:23.975Z,15.84
2018-10-12T01:31:23.972Z,15.84
2018-10-12T01:32:24.013Z,15.82
2018-10-12T01:33:23.926Z,15.82
2018-10-12T01:34:23.930Z,15.88
2018-10-12T01:35:23.917Z,15.83
2018-10-12T01:36:23.913Z,15.92
2018-10-12T01:37:23.958Z,15.91
2018-10-12T01:38:23.906Z,15.79
2018-10-12T01:39:23.870Z,15.79
2018-10-12T01:40:23.961Z,15.95
2018-10-12T01:41:23.853Z,15.92
2018-10-12T01:42:23.831Z,15.95
2018-10-12T01:43:23.851Z,15.95
2018-10-12T01:44:23.820Z,16.05
2018-10-12T01:45:23.802Z,16.01
2018-10-12T01:46:23.861Z,15.98
2018-10-12T01:47:23.782Z,16.01
2018-10-12T01:48:23.844Z,16.02
2018-10-12T01:49:23.760Z,16.08
2018-10-12T01:50:23.758Z,16.15
2018-10-12T01:51:23.747Z,16.13
2018-10-12T01:52:23.727Z,16.16
2018-10-12T01:53:23.778Z,16.17
2018-10-12T01:54:23.740Z,16.15
2018-10-12T01:55:23.700Z,16.15
2018-10-12T01:56:23.693Z,16.10
2018-10-12T01:57:23.680Z,16.17
2018-10-12T01:58:23.703Z,16.17
2018-10-12T01:59:23.756Z,16.20
2018-10-12T02:00:23.642Z,16.17
2018-10-12T02:01:23.632Z,16.23
2018-10-12T02:02:23.619Z,16.15
2018-10-12T02:03:23.619Z,16.15
2018-10-12T02:04:23.643Z,16.15
2018-10-12T02:05:23.652Z,16.08
2018-10-12T02:06:23.581Z,16.05
2018-10-12T02:07:23.578Z,16.02
2018-10-12T02:08:23.557Z,16.08
2018-10-12T02:09:23.566Z,16.01
2018-10-12T02:10:23.571Z,15.98
2018-10-12T02:11:23.544Z,16.04
2018-10-12T02:12:23.565Z,15.91
2018-10-12T02:13:23.506Z,15.84
2018-10-12T02:14:23.516Z,15.84
2018-10-12T02:15:23.525Z,15.86
2018-10-12T02:16:23.484Z,15.95
2018-10-12T02:17:23.472Z,15.95
2018-10-12T02:18:23.516Z,15.91
2018-10-12T02:19:23.443Z,15.92
2018-10-12T02:20:23.477Z,15.83
2018-10-12T02:21:23.425Z,15.68
2018-10-12T02:22:23.423Z,15.77
2018-10-12T02:23:23.414Z,15.73
2018-10-12T02:24:23.393Z,15.67
2018-10-12T02:25:23.375Z,15.59
2018-10-12T02:26:23.459Z,15.59
2018-10-12T02:27:23.361Z,15.58
2018-10-12T02:28:23.348Z,15.59
2018-10-12T02:29:23.350Z,15.64
2018-10-12T02:30:23.329Z,15.55
2018-10-12T02:31:23.355Z,15.57
2018-10-12T02:32:23.328Z,15.49
2018-10-12T02:33:23.301Z,15.59
2018-10-12T02:34:23.339Z,15.49
2018-10-12T02:35:23.286Z,15.49
2018-10-12T02:36:23.310Z,15.47
2018-10-12T02:37:23.255Z,15.40
2018-10-12T02:38:23.250Z,15.49
2018-10-12T02:39:23.236Z,15.51
2018-10-12T02:40:23.233Z,15.47
2018-10-12T02:41:23.212Z,15.46
2018-10-12T02:42:23.236Z,15.49
2018-10-12T02:43:23.210Z,15.36
2018-10-12T02:44:23.232Z,15.40
2018-10-12T02:45:23.185Z,15.40
2018-10-12T02:46:23.165Z,15.40
2018-10-12T02:47:23.191Z,15.24
2018-10-12T02:48:23.143Z,15.29
2018-10-12T02:49:23.133Z,15.18
2018-10-12T02:50:23.191Z,15.24
2018-10-12T02:51:23.112Z,15.14
2018-10-12T02:52:23.123Z,15.15
2018-10-12T02:53:23.162Z,15.19
2018-10-12T02:54:23.091Z,15.11
2018-10-12T02:55:23.094Z,15.17
2018-10-12T02:56:23.067Z,15.09
2018-10-12T02:57:23.057Z,15.09
2018-10-12T02:58:23.061Z,15.19
2018-10-12T02:59:23.018Z,15.14
2018-10-12T03:00:23.105Z,15.15
2018-10-12T03:01:23.016Z,15.15
2018-10-12T03:02:22.988Z,15.31
2018-10-12T03:03:23.016Z,15.24
2018-10-12T03:04:22.983Z,15.31
2018-10-12T03:05:22.966Z,15.22
2018-10-12T03:06:22.963Z,15.29
2018-10-12T03:07:22.944Z,15.29
2018-10-12T03:08:22.968Z,15.29
2018-10-12T03:09:22.963Z,15.31
2018-10-12T03:10:22.906Z,15.40
2018-10-12T03:11:22.901Z,15.46
2018-10-12T03:12:22.890Z,15.61
2018-10-12T03:13:22.924Z,15.68
2018-10-12T03:14:22.901Z,15.79
2018-10-12T03:15:22.848Z,15.80
2018-10-12T03:16:22.838Z,15.86
2018-10-12T03:17:22.906Z,15.82
2018-10-12T03:18:22.830Z,15.83
2018-10-12T03:19:22.841Z,15.90
2018-10-12T03:20:22.813Z,15.80
2018-10-12T03:21:22.795Z,15.83
2018-10-12T03:22:22.792Z,15.80
2018-10-12T03:23:22.772Z,15.68
2018-10-12T03:24:22.805Z,15.80
2018-10-12T03:25:22.759Z,15.84
2018-10-12T03:26:22.740Z,15.73
2018-10-12T03:27:22.731Z,15.86
2018-10-12T03:28:22.840Z,15.75
2018-10-12T03:29:22.716Z,15.79
2018-10-12T03:30:22.725Z,15.68
2018-10-12T03:31:22.702Z,15.75
2018-10-12T03:32:22.677Z,15.72
2018-10-12T03:33:22.667Z,15.68
2018-10-12T03:34:22.665Z,15.70
2018-10-12T03:35:22.785Z,15.72
2018-10-12T03:36:22.644Z,15.65
2018-10-12T03:37:22.730Z,15.62
2018-10-12T03:38:22.622Z,15.59
2018-10-12T03:39:22.613Z,15.62
2018-10-12T03:40:22.620Z,15.58
2018-10-12T03:41:22.616Z,15.58
2018-10-12T03:42:22.594Z,15.64
2018-10-12T03:43:22.555Z,15.62
2018-10-12T03:44:22.924Z,15.52
2018-10-12T03:45:22.582Z,15.58
2018-10-12T03:46:22.541Z,15.57
2018-10-12T03:47:22.509Z,15.62
2018-10-12T03:48:22.501Z,15.52
2018-10-12T03:49:22.868Z,15.55
2018-10-12T03:50:22.481Z,15.57
2018-10-12T03:51:22.502Z,15.57
2018-10-12T03:52:22.461Z,15.55
2018-10-12T03:53:22.452Z,15.55
2018-10-12T03:54:22.456Z,15.51
2018-10-12T03:55:22.430Z,15.51
2018-10-12T03:56:22.447Z,15.46
2018-10-12T03:57:22.406Z,15.43
2018-10-12T03:58:22.401Z,15.37
2018-10-12T03:59:22.396Z,15.39
2018-10-12T04:00:22.396Z,15.43
2018-10-12T04:01:22.892Z,15.36
2018-10-12T04:02:22.355Z,15.33
2018-10-12T04:03:22.346Z,15.22
2018-10-12T04:04:22.350Z,15.29
2018-10-12T04:05:22.323Z,15.19
2018-10-12T04:06:22.344Z,15.29
2018-10-12T04:07:22.326Z,15.31
2018-10-12T04:08:22.292Z,15.29
2018-10-12T04:09:22.393Z,15.29
2018-10-12T04:10:22.268Z,15.27
2018-10-12T04:11:22.287Z,15.31
2018-10-12T04:12:22.330Z,15.24
2018-10-12T04:13:22.238Z,15.17
2018-10-12T04:14:22.230Z,15.19
2018-10-12T04:15:22.240Z,15.21
2018-10-12T04:16:22.268Z,15.19
2018-10-12T04:17:22.200Z,15.19
2018-10-12T04:18:22.203Z,15.17
2018-10-12T04:19:22.181Z,15.25
2018-10-12T04:20:22.165Z,15.17
2018-10-12T04:21:22.212Z,15.27
2018-10-12T04:22:22.143Z,15.18
2018-10-12T04:23:22.151Z,15.25
2018-10-12T04:24:22.126Z,15.36
2018-10-12T04:25:22.148Z,15.29
2018-10-12T04:26:22.144Z,15.25
2018-10-12T04:27:22.093Z,15.35
2018-10-12T04:28:22.098Z,15.24
2018-10-12T04:29:22.072Z,15.24
2018-10-12T04:30:22.070Z,15.25
2018-10-12T04:31:22.110Z,15.14
2018-10-12T04:32:22.055Z,15.15
2018-10-12T04:33:22.066Z,15.18
2018-10-12T04:34:22.025Z,15.09
2018-10-12T04:35:22.018Z,15.17
2018-10-12T04:36:22.056Z,15.19
2018-10-12T04:37:21.986Z,15.19
2018-10-12T04:38:21.983Z,15.19
2018-10-12T04:39:21.974Z,15.09
2018-10-12T04:40:21.963Z,15.18
2018-10-12T04:41:21.974Z,15.10
2018-10-12T04:42:21.937Z,15.11
2018-10-12T04:43:21.954Z,15.07
2018-10-12T04:44:21.913Z,15.06
2018-10-12T04:45:21.902Z,15.09
2018-10-12T04:46:21.938Z,15.07
2018-10-12T04:47:21.991Z,15.02
2018-10-12T04:48:21.872Z,15.10
2018-10-12T04:49:21.875Z,15.15
2018-10-12T04:50:21.851Z,15.09
2018-10-12T04:51:21.875Z,15.07
2018-10-12T04:52:21.827Z,15.10
2018-10-12T04:53:21.822Z,15.06
2018-10-12T04:54:21.808Z,15.02
2018-10-12T04:55:21.821Z,15.02
2018-10-12T04:56:21.832Z,15.04
2018-10-12T04:57:21.777Z,15.07
2018-10-12T04:58:21.782Z,15.07
2018-10-12T04:59:21.761Z,15.03
2018-10-12T05:00:21.756Z,15.10
2018-10-12T05:01:21.784Z,15.00
2018-10-12T05:02:21.730Z,15.06
2018-10-12T05:03:21.777Z,15.02
2018-10-12T05:04:21.708Z,14.97
2018-10-12T05:05:21.694Z,14.92
2018-10-12T05:06:21.717Z,15.02
2018-10-12T05:07:21.680Z,14.94
2018-10-12T05:08:21.685Z,14.97
2018-10-12T05:09:21.653Z,14.99
2018-10-12T05:10:21.641Z,14.94
2018-10-12T05:11:21.660Z,14.94
2018-10-12T05:12:21.627Z,15.00
2018-10-12T05:13:21.606Z,15.04
2018-10-12T05:14:21.625Z,14.92
2018-10-12T05:15:21.602Z,15.04
2018-10-12T05:16:21.634Z,14.99
2018-10-12T05:17:21.566Z,15.03
2018-10-12T05:18:21.553Z,14.99
2018-10-12T05:19:21.554Z,14.99
2018-10-12T05:20:21.537Z,15.06
2018-10-12T05:21:21.559Z,14.97
2018-10-12T05:22:21.544Z,14.94
2018-10-12T05:23:21.511Z,14.97
2018-10-12T05:24:21.489Z,14.84
2018-10-12T05:25:21.483Z,14.85
2018-10-12T05:26:21.512Z,14.81
2018-10-12T05:27:21.466Z,14.85
2018-10-12T05:28:21.496Z,14.78
2018-10-12T05:29:21.443Z,14.85
2018-10-12T05:30:21.499Z,14.84
2018-10-12T05:31:21.446Z,14.91
2018-10-12T05:32:21.404Z,14.79
2018-10-12T05:33:21.398Z,14.84
2018-10-12T05:34:21.468Z,14.85
2018-10-12T05:35:21.379Z,14.79
2018-10-12T05:36:21.407Z,14.81
2018-10-12T05:37:21.360Z,14.81
2018-10-12T05:38:21.351Z,14.77
2018-10-12T05:39:21.333Z,14.82
2018-10-12T05:40:21.343Z,14.85
2018-10-12T05:41:21.345Z,14.81
2018-10-12T05:42:21.302Z,14.85
2018-10-12T05:43:21.420Z,14.79
2018-10-12T05:44:21.279Z,14.82
2018-10-12T05:45:21.272Z,14.86
2018-10-12T05:46:21.314Z,14.81
2018-10-12T05:47:21.278Z,14.94
2018-10-12T05:48:21.238Z,14.86
2018-10-12T05:49:21.232Z,14.82
2018-10-12T05:50:21.224Z,14.88
2018-10-12T05:51:21.238Z,14.84
2018-10-12T05:52:21.195Z,14.86
2018-10-12T05:53:21.194Z,14.84
2018-10-12T05:54:21.204Z,14.81
2018-10-12T05:55:21.169Z,14.79
2018-10-12T05:56:21.187Z,14.73
2018-10-12T05:57:21.151Z,14.81
2018-10-12T05:58:21.162Z,14.73
2018-10-12T05:59:21.126Z,14.81
2018-10-12T06:00:21.138Z,14.86
2018-10-12T06:01:21.273Z,14.81
2018-10-12T06:02:21.096Z,14.82
2018-10-12T06:03:21.083Z,14.86
2018-10-12T06:04:21.072Z,14.79
2018-10-12T06:05:21.056Z,14.82
2018-10-12T06:06:21.133Z,14.77
2018-10-12T06:07:21.032Z,14.70
2018-10-12T06:08:21.035Z,14.85
2018-10-12T06:09:21.051Z,14.81
2018-10-12T06:10:21.008Z,14.84
2018-10-12T06:11:21.126Z,14.78
2018-10-12T06:12:21.023Z,14.84
2018-10-12T06:13:20.975Z,14.81
2018-10-12T06:14:20.961Z,14.81
2018-10-12T06:16:20.989Z,14.91
2018-10-12T06:17:20.927Z,14.89
2018-10-12T06:18:20.937Z,14.88
2018-10-12T06:19:20.913Z,14.97
2018-10-12T06:20:20.899Z,15.06
2018-10-12T06:21:20.913Z,15.02
2018-10-12T06:22:20.873Z,15.03
2018-10-12T06:23:20.866Z,15.00
2018-10-12T06:24:20.895Z,15.07
2018-10-12T06:25:20.848Z,15.09
2018-10-12T06:26:20.863Z,15.06
2018-10-12T06:27:20.824Z,15.06
2018-10-12T06:28:20.815Z,15.06
2018-10-12T06:29:20.805Z,15.04
2018-10-12T06:30:20.818Z,15.17
2018-10-12T06:31:20.856Z,15.17
2018-10-12T06:32:20.769Z,15.15
2018-10-12T06:33:20.759Z,15.24
2018-10-12T06:34:20.749Z,15.29
2018-10-12T06:35:20.739Z,15.28
2018-10-12T06:36:20.771Z,15.19
2018-10-12T06:37:20.752Z,15.33
2018-10-12T06:38:20.710Z,15.29
2018-10-12T06:39:20.695Z,15.25
2018-10-12T06:40:20.691Z,15.31
2018-10-12T06:41:20.826Z,15.44
2018-10-12T06:42:20.670Z,15.44
2018-10-12T06:43:20.687Z,15.46
2018-10-12T06:44:20.651Z,15.51
2018-10-12T06:45:20.640Z,15.61
2018-10-12T06:46:20.667Z,15.65
2018-10-12T06:47:20.615Z,15.72
2018-10-12T06:48:20.601Z,15.68
2018-10-12T06:49:20.608Z,15.79
2018-10-12T06:50:20.585Z,15.92
2018-10-12T06:51:20.599Z,15.91
2018-10-12T06:52:20.566Z,16.01
2018-10-12T06:53:20.554Z,16.04
2018-10-12T06:54:20.543Z,16.09
2018-10-12T06:55:20.578Z,16.17
2018-10-12T06:56:20.562Z,16.20
2018-10-12T06:57:20.514Z,16.23
2018-10-12T06:58:20.510Z,16.24
2018-10-12T06:59:20.486Z,16.31
2018-10-12T07:00:20.474Z,16.31
2018-10-12T07:01:20.492Z,16.35
2018-10-12T07:02:20.479Z,16.31
2018-10-12T07:03:20.584Z,16.38
2018-10-12T07:04:20.435Z,16.36
2018-10-12T07:05:20.424Z,16.39
2018-10-12T07:06:20.441Z,16.36
2018-10-12T07:07:20.403Z,16.47
2018-10-12T07:08:20.405Z,16.47
2018-10-12T07:09:20.408Z,16.43
2018-10-12T07:10:20.405Z,16.43
2018-10-12T07:11:20.390Z,16.57
2018-10-12T07:12:20.347Z,16.54
2018-10-12T07:13:20.356Z,16.60
2018-10-12T07:14:20.329Z,16.58
2018-10-12T07:15:20.316Z,16.64
2018-10-12T07:16:20.335Z,16.64
2018-10-12T07:17:20.322Z,16.68
2018-10-12T07:18:20.301Z,16.71
2018-10-12T07:19:20.304Z,16.69
2018-10-12T07:20:20.307Z,16.72
2018-10-12T07:21:20.999Z,16.78
2018-10-12T07:22:20.248Z,16.79
2018-10-12T07:23:20.236Z,16.78
2018-10-12T07:24:20.222Z,16.79
2018-10-12T07:25:20.214Z,16.83
2018-10-12T07:26:20.271Z,16.89
2018-10-12T07:27:20.189Z,16.91
2018-10-12T07:28:20.181Z,16.84
2018-10-12T07:29:20.169Z,16.89
2018-10-12T07:30:20.160Z,16.86
2018-10-12T07:31:20.178Z,16.91
2018-10-12T07:32:20.165Z,16.94
2018-10-12T07:33:20.128Z,16.87
2018-10-12T07:34:20.123Z,16.90
2018-10-12T07:35:20.106Z,17.04
2018-10-12T07:36:20.134Z,17.04
2018-10-12T07:37:20.152Z,16.99
2018-10-12T07:38:20.107Z,16.94
2018-10-12T07:39:20.073Z,17.01
2018-10-12T07:40:20.062Z,16.99
2018-10-12T07:41:20.077Z,17.14
2018-10-12T07:42:20.105Z,17.08
2018-10-12T07:43:20.060Z,17.14
2018-10-12T07:44:20.014Z,17.09
2018-10-12T07:45:20.001Z,17.09
2018-10-12T07:46:20.027Z,17.14
2018-10-12T07:47:20.007Z,17.23
2018-10-12T07:48:19.980Z,17.23
2018-10-12T07:49:19.981Z,17.31
2018-10-12T07:50:19.950Z,17.36
2018-10-12T07:51:19.984Z,17.31
2018-10-12T07:52:19.934Z,17.33
2018-10-12T07:53:20.011Z,17.46
2018-10-12T07:54:19.906Z,17.38
2018-10-12T07:55:19.905Z,17.42
2018-10-12T07:56:20.033Z,17.44
2018-10-12T07:57:19.878Z,17.46
2018-10-12T07:58:19.865Z,17.52
2018-10-12T07:59:19.857Z,17.52
2018-10-12T08:00:19.976Z,17.44
2018-10-12T08:01:19.882Z,17.59
2018-10-12T08:02:19.837Z,17.54
2018-10-12T08:03:19.839Z,17.46
2018-10-12T08:04:19.807Z,17.54
2018-10-12T08:05:19.797Z,17.54
2018-10-12T08:06:19.923Z,17.65
2018-10-12T08:07:19.774Z,17.67
2018-10-12T08:08:19.770Z,17.71
2018-10-12T08:09:19.792Z,17.76
2018-10-12T08:10:19.751Z,17.70
2018-10-12T08:11:19.764Z,17.72
2018-10-12T08:12:19.723Z,17.78
2018-10-12T08:13:19.714Z,17.71
2018-10-12T08:14:19.762Z,17.82
2018-10-12T08:15:19.710Z,17.80
2018-10-12T08:16:19.746Z,17.82
2018-10-12T08:17:19.675Z,17.87
2018-10-12T08:18:19.660Z,17.89
2018-10-12T08:19:19.656Z,17.86
2018-10-12T08:20:19.703Z,17.98
2018-10-12T08:21:19.662Z,17.97
2018-10-12T08:22:19.635Z,18.04
2018-10-12T08:23:19.623Z,18.01
2018-10-12T08:24:19.622Z,18.04
2018-10-12T08:25:19.583Z,18.01
2018-10-12T08:26:19.600Z,18.13
2018-10-12T08:27:19.577Z,18.13
2018-10-12T08:28:19.552Z,18.15
2018-10-12T08:29:19.543Z,18.23
2018-10-12T08:30:19.555Z,18.19
2018-10-12T08:31:19.581Z,18.25
2018-10-12T08:32:19.521Z,18.28
2018-10-12T08:33:19.497Z,18.25
2018-10-12T08:34:19.489Z,18.33
2018-10-12T08:35:19.485Z,18.33
2018-10-12T08:36:19.611Z,18.29
2018-10-12T08:37:19.467Z,18.45
2018-10-12T08:38:19.444Z,18.47
2018-10-12T08:39:19.476Z,18.49
2018-10-12T08:40:19.431Z,18.52
2018-10-12T08:41:19.453Z,18.55
2018-10-12T08:42:19.406Z,18.60
2018-10-12T08:43:19.396Z,18.59
2018-10-12T08:44:19.391Z,18.58
2018-10-12T08:45:19.389Z,18.71
2018-10-12T08:46:19.395Z,18.70
2018-10-12T08:47:19.354Z,18.73
2018-10-12T08:48:19.335Z,18.78
2018-10-12T08:49:19.324Z,18.77
2018-10-12T08:50:19.313Z,18.77
2018-10-12T08:51:19.336Z,18.80
2018-10-12T08:52:19.326Z,18.80
2018-10-12T08:53:19.286Z,18.80
2018-10-12T08:54:19.274Z,18.86
2018-10-12T08:55:19.298Z,18.88
2018-10-12T08:56:19.281Z,18.99
2018-10-12T08:57:19.245Z,19.04
2018-10-12T08:58:19.257Z,19.09
2018-10-12T08:59:19.221Z,19.09
2018-10-12T09:00:19.209Z,19.15
2018-10-12T09:01:19.228Z,19.09
2018-10-12T09:02:19.190Z,19.22
2018-10-12T09:03:19.182Z,19.19
2018-10-12T09:04:19.176Z,19.15
2018-10-12T09:05:19.174Z,19.29
2018-10-12T09:06:19.172Z,19.21
2018-10-12T09:07:19.138Z,19.21
2018-10-12T09:08:19.118Z,19.29
2018-10-12T09:09:19.113Z,19.33
2018-10-12T09:10:19.112Z,19.31
2018-10-12T09:11:19.127Z,19.39
2018-10-12T09:12:19.153Z,19.40
2018-10-12T09:13:19.079Z,19.51
2018-10-12T09:14:19.068Z,19.56
2018-10-12T09:15:19.051Z,19.66
2018-10-12T09:16:19.131Z,19.66
2018-10-12T09:17:19.041Z,19.69
2018-10-12T09:18:19.025Z,19.67
2018-10-12T09:19:19.035Z,19.63
2018-10-12T09:20:19.091Z,19.77
2018-10-12T09:21:19.033Z,19.67
2018-10-12T09:22:18.974Z,19.74
2018-10-12T09:23:18.964Z,19.77
2018-10-12T09:24:18.952Z,19.84
2018-10-12T09:25:18.945Z,19.73
2018-10-12T09:26:18.981Z,19.71
2018-10-12T09:27:18.991Z,19.77
2018-10-12T09:28:18.910Z,19.63
2018-10-12T09:29:18.895Z,19.74
2018-10-12T09:30:18.919Z,19.74
2018-10-12T09:31:18.914Z,19.74
2018-10-12T09:32:18.869Z,19.77
2018-10-12T09:33:18.853Z,19.79
2018-10-12T09:34:18.883Z,19.74
2018-10-12T09:35:18.840Z,19.73
2018-10-12T09:36:18.864Z,19.85
2018-10-12T09:37:18.844Z,19.91
2018-10-12T09:38:18.808Z,19.91
2018-10-12T09:39:18.792Z,19.91
2018-10-12T09:40:18.800Z,20.04
2018-10-12T09:41:18.807Z,20.11
2018-10-12T09:42:18.810Z,20.18
2018-10-12T09:43:18.814Z,20.14
2018-10-12T09:44:18.743Z,20.13
2018-10-12T09:45:18.727Z,20.11
2018-10-12T09:46:18.744Z,20.13
2018-10-12T09:47:18.715Z,20.16
2018-10-12T09:48:18.735Z,20.26
2018-10-12T09:49:18.693Z,20.22
2018-10-12T09:50:18.741Z,20.36
2018-10-12T09:51:18.695Z,20.37
2018-10-12T09:52:18.656Z,20.41
2018-10-12T09:53:18.644Z,20.37
2018-10-12T09:54:18.661Z,20.40
2018-10-12T09:55:18.624Z,20.40
2018-10-12T09:56:18.648Z,20.40
2018-10-12T09:57:18.604Z,20.39
2018-10-12T09:58:18.598Z,20.41
2018-10-12T09:59:18.588Z,20.47
2018-10-12T10:00:18.594Z,20.52
2018-10-12T10:01:18.594Z,20.60
2018-10-12T10:02:18.624Z,20.70
2018-10-12T10:03:18.547Z,20.72
2018-10-12T10:04:18.527Z,20.66
2018-10-12T10:05:18.524Z,20.77
2018-10-12T10:06:18.566Z,20.80
2018-10-12T10:07:18.504Z,20.75
2018-10-12T10:08:18.666Z,20.87
2018-10-12T10:09:18.493Z,20.84
2018-10-12T10:10:18.465Z,20.95
2018-10-12T10:11:18.482Z,21.03
2018-10-12T10:12:18.456Z,21.11
2018-10-12T10:13:18.452Z,21.03
2018-10-12T10:14:18.425Z,21.15
2018-10-12T10:15:18.474Z,21.09
2018-10-12T10:16:18.433Z,21.14
2018-10-12T10:17:18.394Z,21.22
2018-10-12T10:18:18.383Z,21.22
2018-10-12T10:19:18.473Z,21.18
2018-10-12T10:20:18.396Z,21.22
2018-10-12T10:21:18.385Z,21.21
2018-10-12T10:22:18.397Z,21.21
2018-10-12T10:23:18.696Z,21.29
2018-10-12T10:24:18.320Z,21.30
2018-10-12T10:25:18.308Z,21.25
2018-10-12T10:26:18.367Z,21.39
2018-10-12T10:27:18.288Z,21.39
2018-10-12T10:28:18.279Z,21.46
2018-10-12T10:29:18.366Z,21.37
2018-10-12T10:30:18.258Z,21.45
2018-10-12T10:31:18.286Z,21.54
2018-10-12T10:32:18.287Z,21.48
2018-10-12T10:33:18.263Z,21.60
2018-10-12T10:34:18.224Z,21.61
2018-10-12T10:35:18.206Z,21.54
2018-10-12T10:36:18.231Z,21.64
2018-10-12T10:37:18.187Z,21.73
2018-10-12T10:38:18.173Z,21.66
2018-10-12T10:39:18.185Z,21.64
2018-10-12T10:40:18.150Z,21.66
2018-10-12T10:41:18.171Z,21.75
2018-10-12T10:42:18.139Z,21.91
2018-10-12T10:43:18.122Z,21.91
2018-10-12T10:44:18.113Z,21.89
2018-10-12T10:45:18.127Z,21.85
2018-10-12T10:46:18.168Z,21.83
2018-10-12T10:47:18.074Z,21.82
2018-10-12T10:48:18.070Z,21.89
2018-10-12T10:49:18.058Z,21.91
2018-10-12T10:50:18.049Z,21.82
2018-10-12T10:51:18.096Z,21.91
2018-10-12T10:52:18.026Z,22.00
2018-10-12T10:53:18.018Z,21.98
2018-10-12T10:54:18.000Z,22.02
2018-10-12T10:55:17.994Z,21.92
2018-10-12T10:56:18.009Z,22.06
2018-10-12T10:57:17.990Z,22.11
2018-10-12T10:58:17.987Z,22.17
2018-10-12T10:59:17.952Z,22.11
2018-10-12T11:00:17.940Z,22.15
2018-10-12T11:01:17.962Z,22.28
2018-10-12T11:02:17.916Z,22.41
2018-10-12T11:03:17.908Z,22.55
2018-10-12T11:04:17.902Z,22.69
2018-10-12T11:05:17.934Z,22.85
2018-10-12T11:06:17.920Z,23.32
2018-10-12T11:07:17.869Z,24.16
2018-10-12T11:08:17.852Z,24.58
2018-10-12T11:09:17.844Z,24.81
2018-10-12T11:10:17.834Z,25.23
2018-10-12T11:11:17.878Z,24.77
2018-10-12T11:12:17.903Z,24.61
2018-10-12T11:13:17.873Z,24.43
2018-10-12T11:14:17.801Z,24.43
2018-10-12T11:15:17.795Z,24.30
2018-10-12T11:16:17.818Z,24.53
2018-10-12T11:17:17.768Z,24.18
2018-10-12T11:18:17.784Z,23.92
2018-10-12T11:19:17.766Z,23.77
2018-10-12T11:20:17.738Z,24.10
2018-10-12T11:21:17.760Z,24.02
2018-10-12T11:22:17.711Z,24.68
2018-10-12T11:23:17.707Z,24.50
2018-10-12T11:24:17.709Z,24.95
2018-10-12T11:25:17.704Z,25.43
2018-10-12T11:26:17.800Z,25.87
2018-10-12T11:27:17.684Z,26.21
2018-10-12T11:28:17.656Z,26.41
2018-10-12T11:29:17.639Z,26.70
2018-10-12T11:30:17.632Z,26.75
2018-10-12T11:31:17.682Z,26.77
2018-10-12T11:32:17.616Z,26.05
2018-10-12T11:33:17.604Z,26.29
2018-10-12T11:34:17.593Z,26.78
2018-10-12T11:35:17.576Z,27.07
2018-10-12T11:36:17.603Z,27.37
2018-10-12T11:37:17.590Z,27.73
2018-10-12T11:38:17.581Z,28.17
2018-10-12T11:39:17.540Z,27.45
2018-10-12T11:40:17.537Z,26.62
2018-10-12T11:41:17.551Z,26.47
2018-10-12T11:42:17.506Z,26.65
2018-10-12T11:43:17.526Z,26.93
2018-10-12T11:44:17.481Z,27.18
2018-10-12T11:45:17.505Z,27.29
2018-10-12T11:46:17.496Z,26.90
2018-10-12T11:47:17.448Z,26.68
2018-10-12T11:48:17.443Z,27.30
2018-10-12T11:49:17.464Z,27.58
2018-10-12T11:50:17.427Z,27.92
2018-10-12T11:51:17.441Z,27.78
2018-10-12T11:52:17.491Z,28.11
2018-10-12T11:53:17.400Z,27.29
2018-10-12T11:54:17.373Z,27.54
2018-10-12T11:55:17.379Z,27.89
2018-10-12T11:56:17.422Z,27.10
2018-10-12T11:57:17.339Z,26.73
2018-10-12T11:58:17.338Z,26.95
2018-10-12T11:59:17.340Z,27.47
2018-10-12T12:00:17.313Z,27.21
2018-10-12T12:01:17.344Z,27.44
2018-10-12T12:02:17.373Z,26.77
2018-10-12T12:03:17.288Z,25.87
2018-10-12T12:04:17.310Z,25.46
2018-10-12T12:05:17.257Z,25.13
2018-10-12T12:06:17.287Z,24.96
2018-10-12T12:07:17.285Z,24.84
2018-10-12T12:08:17.229Z,24.84
2018-10-12T12:09:17.217Z,24.74
2018-10-12T12:10:17.230Z,24.74
2018-10-12T12:11:17.348Z,24.73
2018-10-12T12:12:17.224Z,24.98
2018-10-12T12:13:17.195Z,25.80
2018-10-12T12:14:17.172Z,26.25
2018-10-12T12:15:17.249Z,26.68
2018-10-12T12:16:17.142Z,26.90
2018-10-12T12:17:17.255Z,26.85
2018-10-12T12:18:17.158Z,26.33
2018-10-12T12:19:17.154Z,26.06
2018-10-12T12:20:17.114Z,25.85
2018-10-12T12:21:17.094Z,25.87
2018-10-12T12:22:17.136Z,25.40
2018-10-12T12:23:17.071Z,25.25
2018-10-12T12:24:17.069Z,25.01
2018-10-12T12:25:17.055Z,24.95
2018-10-12T12:26:17.054Z,24.98
2018-10-12T12:27:17.079Z,24.98
2018-10-12T12:28:17.056Z,24.91
2018-10-12T12:29:17.014Z,24.73
2018-10-12T12:30:16.997Z,24.77
2018-10-12T12:31:16.996Z,24.80
2018-10-12T12:32:16.984Z,24.76
2018-10-12T12:33:17.004Z,24.76
2018-10-12T12:34:16.969Z,24.80
2018-10-12T12:35:17.223Z,24.85
2018-10-12T12:36:17.115Z,24.96
2018-10-12T12:37:16.926Z,25.25
2018-10-12T12:38:16.941Z,25.47
2018-10-12T12:39:16.911Z,25.84
2018-10-12T12:40:16.933Z,26.65
2018-10-12T12:41:16.888Z,27.48
2018-10-12T12:42:16.874Z,27.95
2018-10-12T12:43:16.915Z,28.19
2018-10-12T12:44:16.854Z,28.47
2018-10-12T12:45:16.849Z,28.64
2018-10-12T12:46:16.863Z,28.94
2018-10-12T12:47:16.940Z,29.34
2018-10-12T12:48:17.035Z,29.20
2018-10-12T12:49:17.243Z,29.16
2018-10-12T12:50:16.802Z,28.89
2018-10-12T12:51:16.792Z,28.42
2018-10-12T12:52:16.850Z,27.52
2018-10-12T12:53:16.758Z,26.63